Time;durP1;ratioP1;P1;durP2;ratioP2;P2;SDS_P1;SDS_P2;PMS_P1;PMS_P2;Temp;Humidity;BMP_temperature;BMP_pressure;BME280_temperature;BME280_humidity;BME280_pressure;Samples;Min_cycle;Max_cycle;Signal;HPM_P1;HPM_P2
2022/03/22 00:01:47;;;;;;;13.40;11.60;;;;;;;8.07;62.42;102449.13;4953089;28;20455;-70
2022/03/22 00:04:13;;;;;;;14.20;11.90;;;;;;;7.96;62.62;102448.81;4934819;28;20062;-70
2022/03/22 00:06:38;;;;;;;16.25;11.95;;;;;;;7.99;62.33;102456.56;4917760;28;20100;-70
2022/03/22 00:09:03;;;;;;;15.20;12.10;;;;;;;7.95;62.89;102450.56;4936058;28;20019;-70
2022/03/22 00:11:29;;;;;;;15.88;12.15;;;;;;;7.94;62.50;102450.66;4935311;28;20256;-69
2022/03/22 00:13:54;;;;;;;13.27;11.90;;;;;;;7.94;61.90;102448.03;4949684;28;20811;-70
2022/03/22 00:16:20;;;;;;;14.98;12.55;;;;;;;7.95;61.85;102455.84;4934700;28;20133;-70
2022/03/22 00:18:47;;;;;;;13.02;11.63;;;;;;;7.79;61.76;102450.50;4954947;28;20147;-69
2022/03/22 00:21:12;;;;;;;14.15;12.45;;;;;;;7.75;61.93;102451.56;4928159;28;20023;-69
2022/03/22 00:23:37;;;;;;;15.18;12.35;;;;;;;7.84;61.31;102447.63;4936890;28;20881;-70
2022/03/22 00:26:03;;;;;;;14.27;12.07;;;;;;;7.84;61.37;102453.78;4954540;28;20574;-69
2022/03/22 00:28:30;;;;;;;14.30;12.23;;;;;;;7.73;61.37;102451.66;4937575;28;20223;-69
2022/03/22 00:30:56;;;;;;;17.98;12.30;;;;;;;7.66;61.43;102454.69;4936095;28;20015;-70
2022/03/22 00:33:21;;;;;;;15.30;12.00;;;;;;;7.65;61.38;102458.25;4954936;28;20037;-69
2022/03/22 00:35:49;;;;;;;16.73;12.75;;;;;;;7.68;61.82;102458.09;4953265;28;20479;-69
2022/03/22 00:38:18;;;;;;;12.82;11.52;;;;;;;7.67;62.30;102451.09;4936745;28;20121;-69
2022/03/22 00:40:44;;;;;;;12.55;11.25;;;;;;;7.62;62.73;102451.34;4920839;28;20255;-70
2022/03/22 00:43:09;;;;;;;15.18;11.40;;;;;;;7.67;62.62;102461.63;4968917;28;20207;-69
2022/03/22 00:45:36;;;;;;;17.45;11.40;;;;;;;7.54;62.57;102453.47;4921188;28;20026;-69
2022/03/22 00:48:03;;;;;;;16.35;11.68;;;;;;;7.57;62.40;102459.47;4938875;28;20031;-70
2022/03/22 00:50:34;;;;;;;16.42;11.88;;;;;;;7.59;61.92;102455.88;4934567;28;20087;-70
2022/03/22 00:53:00;;;;;;;14.15;11.65;;;;;;;7.54;61.59;102448.22;4936053;28;20014;-69
2022/03/22 00:55:26;;;;;;;14.43;11.77;;;;;;;7.51;61.46;102451.00;4936896;28;20121;-70
2022/03/22 00:57:52;;;;;;;13.13;11.82;;;;;;;7.61;61.29;102461.94;4927925;28;20023;-70
2022/03/22 01:00:17;;;;;;;13.77;12.25;;;;;;;7.67;60.31;102459.00;4939503;28;20545;-70
2022/03/22 01:02:50;;;;;;;14.57;12.25;;;;;;;7.61;59.86;102454.88;4937967;28;20999;-70
2022/03/22 01:05:18;;;;;;;13.82;12.18;;;;;;;7.62;59.95;102458.41;4951553;28;20038;-70
2022/03/22 01:07:45;;;;;;;14.07;12.57;;;;;;;7.64;59.68;102452.13;4936877;28;20209;-70
2022/03/22 01:10:11;;;;;;;15.13;12.57;;;;;;;7.66;59.02;102447.63;4933883;28;20914;-69
2022/03/22 01:12:37;;;;;;;14.27;12.52;;;;;;;7.77;58.20;102455.00;4955002;28;20104;-69
2022/03/22 01:15:11;;;;;;;13.88;12.40;;;;;;;7.92;57.64;102450.72;4922998;28;20038;-69
2022/03/22 01:17:37;;;;;;;15.57;12.38;;;;;;;8.09;56.38;102455.16;4907740;28;20003;-69
2022/03/22 01:20:05;;;;;;;14.48;12.50;;;;;;;8.18;56.01;102454.69;4937957;28;20011;-70
2022/03/22 01:22:31;;;;;;;14.15;12.73;;;;;;;8.15;57.05;102446.94;4957247;28;20011;-69
2022/03/22 01:24:56;;;;;;;14.88;12.75;;;;;;;8.07;57.49;102449.13;4941084;28;20024;-69
2022/03/22 01:27:22;;;;;;;13.52;12.13;;;;;;;8.15;57.56;102459.25;4932598;28;20010;-69
2022/03/22 01:29:48;;;;;;;14.05;12.50;;;;;;;8.14;57.29;102450.50;4939800;28;20021;-70
2022/03/22 01:32:13;;;;;;;16.98;12.52;;;;;;;8.10;56.91;102453.38;4957734;28;20100;-69
2022/03/22 01:34:39;;;;;;;15.60;12.60;;;;;;;7.97;57.41;102442.63;4958593;28;20131;-69
2022/03/22 01:37:04;;;;;;;15.63;12.65;;;;;;;7.94;57.22;102442.75;4944190;28;19999;-71
2022/03/22 01:39:30;;;;;;;15.07;12.75;;;;;;;8.07;57.38;102443.84;4961677;28;20017;-71
2022/03/22 01:41:57;;;;;;;16.58;12.63;;;;;;;8.06;57.71;102434.22;4943007;28;20424;-71
2022/03/22 01:44:23;;;;;;;15.35;12.68;;;;;;;7.99;56.93;102440.75;4945985;28;20083;-71
2022/03/22 01:46:49;;;;;;;13.93;12.10;;;;;;;8.06;56.90;102442.13;4959644;28;20251;-71
2022/03/22 01:49:15;;;;;;;18.60;12.68;;;;;;;8.05;55.96;102446.56;4942014;28;20003;-71
2022/03/22 01:51:41;;;;;;;14.50;13.00;;;;;;;7.96;56.27;102446.19;4943770;28;20079;-71
2022/03/22 01:54:06;;;;;;;15.18;12.70;;;;;;;7.95;56.31;102437.38;4943474;28;20010;-71
2022/03/22 01:56:31;;;;;;;18.42;12.32;;;;;;;7.97;56.25;102445.25;4954520;28;20198;-72
2022/03/22 01:58:57;;;;;;;14.80;11.93;;;;;;;7.99;55.01;102438.94;4963354;28;20036;-71
2022/03/22 02:06:52;;;;;;;14.48;12.60;;;;;;;8.21;52.56;102429.94;4954272;28;20060;-72
2022/03/22 02:09:17;;;;;;;19.17;12.48;;;;;;;8.25;53.14;102427.06;4964033;28;20011;-71
2022/03/22 02:11:43;;;;;;;14.05;12.52;;;;;;;8.20;53.54;102422.97;4990691;28;20021;-71
2022/03/22 02:14:09;;;;;;;14.65;11.95;;;;;;;8.32;52.83;102432.00;4970648;28;20024;-71
2022/03/22 02:16:34;;;;;;;16.38;12.05;;;;;;;8.37;51.92;102432.63;4975303;28;20386;-71
2022/03/22 02:19:00;;;;;;;16.40;11.98;;;;;;;8.22;52.69;102424.59;4952049;28;20013;-71
2022/03/22 02:21:25;;;;;;;15.60;12.68;;;;;;;8.25;53.44;102427.06;4950338;28;20015;-70
2022/03/22 02:23:57;;;;;;;16.38;12.15;;;;;;;8.18;53.53;102427.44;4951630;28;20029;-69
2022/03/22 02:26:23;;;;;;;16.02;12.30;;;;;;;8.20;53.57;102429.06;4970339;28;20030;-69
2022/03/22 02:28:53;;;;;;;14.25;12.18;;;;;;;8.18;53.61;102428.31;4969728;28;20765;-69
2022/03/22 02:31:19;;;;;;;13.68;12.27;;;;;;;8.19;54.01;102422.13;4985068;28;20051;-69
2022/03/22 02:33:44;;;;;;;13.40;11.93;;;;;;;8.10;54.51;102422.59;4989704;28;20030;-69
2022/03/22 02:36:10;;;;;;;13.32;11.93;;;;;;;7.90;54.92;102426.25;5004775;28;20234;-69
2022/03/22 02:38:36;;;;;;;13.48;12.07;;;;;;;7.97;55.46;102424.16;4974550;28;20366;-70
2022/03/22 02:41:01;;;;;;;13.43;11.27;;;;;;;7.75;56.15;102427.88;4971314;28;20126;-70
2022/03/22 02:43:27;;;;;;;13.15;11.20;;;;;;;7.51;57.60;102429.94;4957803;28;20434;-69
2022/03/22 02:45:52;;;;;;;13.10;11.70;;;;;;;7.48;58.24;102430.09;4955616;28;20142;-69
2022/03/22 02:48:18;;;;;;;14.05;11.30;;;;;;;7.28;58.54;102426.63;4954695;28;20014;-69
2022/03/22 02:50:43;;;;;;;15.02;11.00;;;;;;;7.32;58.51;102422.06;4936623;28;20010;-70
2022/03/22 02:53:09;;;;;;;12.95;11.10;;;;;;;7.28;58.67;102425.78;4938924;28;20014;-70
2022/03/22 02:55:34;;;;;;;12.60;11.18;;;;;;;7.14;59.24;102426.44;4966236;28;20022;-70
2022/03/22 02:57:59;;;;;;;12.77;11.48;;;;;;;7.13;59.15;102425.56;4951437;28;20092;-70
2022/03/22 03:00:26;;;;;;;13.15;11.63;;;;;;;7.02;59.30;102425.22;4970174;28;20025;-70
2022/03/22 03:02:52;;;;;;;13.88;11.32;;;;;;;6.97;59.55;102427.25;4953134;28;20029;-70
2022/03/22 03:05:19;;;;;;;13.85;11.35;;;;;;;7.00;58.92;102425.31;4938523;28;20034;-69
2022/03/22 03:07:44;;;;;;;12.30;11.07;;;;;;;6.98;58.94;102426.28;4959920;28;20022;-69
2022/03/22 03:10:09;;;;;;;13.10;11.35;;;;;;;6.86;59.09;102423.31;4976581;28;20006;-70
2022/03/22 03:12:35;;;;;;;16.05;11.52;;;;;;;6.77;60.23;102434.28;4973337;28;20820;-69
2022/03/22 03:15:00;;;;;;;12.30;10.98;;;;;;;6.77;60.01;102429.03;4957209;28;20121;-69
2022/03/22 03:17:26;;;;;;;14.25;10.48;;;;;;;6.73;60.64;102437.97;4980465;28;20006;-69
2022/03/22 03:19:52;;;;;;;12.20;10.88;;;;;;;6.69;61.43;102436.41;4982045;28;20022;-70
2022/03/22 03:22:18;;;;;;;12.30;11.00;;;;;;;6.73;61.54;102432.72;4957611;28;20492;-70
2022/03/22 03:24:43;;;;;;;13.27;11.25;;;;;;;6.66;61.78;102436.56;4952091;28;20368;-69
2022/03/22 03:27:08;;;;;;;13.32;11.35;;;;;;;6.55;62.71;102437.03;4962510;28;20377;-69
2022/03/22 03:29:34;;;;;;;13.32;10.88;;;;;;;6.61;62.64;102433.25;4955307;28;20018;-69
2022/03/22 03:31:59;;;;;;;12.73;10.75;;;;;;;6.64;62.33;102435.75;4952989;28;20022;-69
2022/03/22 03:34:24;;;;;;;13.00;10.95;;;;;;;6.46;63.33;102435.66;4952999;28;20096;-70
2022/03/22 03:36:50;;;;;;;12.38;10.75;;;;;;;6.46;63.18;102440.91;4948528;28;20943;-70
2022/03/22 03:39:16;;;;;;;11.95;10.73;;;;;;;6.37;63.41;102436.06;4956192;28;20259;-70
2022/03/22 03:41:53;;;;;;;12.85;11.15;;;;;;;6.41;62.88;102437.63;4962647;28;20586;-69
2022/03/22 03:47:16;;;;;;;12.50;10.65;;;;;;;6.30;63.66;102430.25;4954983;28;20152;-70
2022/03/22 03:49:42;;;;;;;14.32;10.88;;;;;;;6.27;63.60;102434.75;4952287;28;20030;-70
2022/03/22 03:52:09;;;;;;;12.32;10.85;;;;;;;6.20;64.32;102444.69;4948055;28;20716;-71
2022/03/22 03:54:35;;;;;;;12.20;10.93;;;;;;;6.19;63.60;102437.75;4933866;28;20904;-69
2022/03/22 03:57:00;;;;;;;12.20;10.43;;;;;;;6.22;64.05;102444.59;4948963;28;20022;-69
2022/03/22 03:59:26;;;;;;;14.63;10.80;;;;;;;6.16;63.12;102438.72;4937849;28;20390;-69
2022/03/22 04:01:51;;;;;;;16.17;12.00;;;;;;;6.01;63.12;102445.47;4934092;28;20018;-69
2022/03/22 04:04:17;;;;;;;13.85;11.13;;;;;;;5.91;63.26;102444.13;4955932;28;20031;-69
2022/03/22 04:06:42;;;;;;;11.77;10.55;;;;;;;5.94;62.88;102448.41;4974255;28;20030;-70
2022/03/22 04:09:07;;;;;;;13.70;10.95;;;;;;;5.95;61.92;102450.97;4954807;28;20545;-69
2022/03/22 04:11:33;;;;;;;15.80;11.00;;;;;;;5.86;61.84;102453.97;4952078;28;20154;-70
2022/03/22 04:13:58;;;;;;;14.02;11.10;;;;;;;5.77;62.01;102449.94;4953412;28;20075;-69
2022/03/22 04:16:23;;;;;;;13.80;10.80;;;;;;;5.72;61.60;102448.44;4953038;28;20434;-69
2022/03/22 04:18:50;;;;;;;12.00;10.80;;;;;;;5.64;61.19;102460.13;4965293;28;20092;-69
2022/03/22 04:21:16;;;;;;;12.85;11.38;;;;;;;5.65;60.79;102442.56;4974638;28;20866;-69
2022/03/22 04:23:41;;;;;;;14.63;11.80;;;;;;;5.58;61.51;102451.63;4958808;28;20016;-69
2022/03/22 04:26:06;;;;;;;13.13;11.20;;;;;;;5.52;61.34;102450.09;4968740;28;21115;-69
2022/03/22 04:34:01;;;;;;;13.20;11.70;;;;;;;5.44;62.66;102450.41;4980686;28;20068;-70
2022/03/22 04:36:27;;;;;;;12.23;10.93;;;;;;;5.40;63.00;102454.06;4977723;28;20022;-69
2022/03/22 04:38:53;;;;;;;15.88;11.77;;;;;;;5.27;64.25;102455.47;4976720;28;20033;-69
2022/03/22 04:41:18;;;;;;;14.65;11.98;;;;;;;5.27;64.31;102458.97;4993742;28;20394;-70
2022/03/22 04:43:43;;;;;;;13.05;11.75;;;;;;;5.45;64.59;102467.84;4961460;28;20017;-70
2022/03/22 04:46:09;;;;;;;14.93;12.20;;;;;;;5.42;64.81;102460.09;4977064;28;20044;-69
2022/03/22 04:48:36;;;;;;;14.35;12.32;;;;;;;5.39;64.63;102462.88;4971597;28;20029;-69
2022/03/22 04:56:46;;;;;;;14.23;12.40;;;;;;;5.10;65.54;102459.59;4959942;28;20812;-72
2022/03/22 04:59:12;;;;;;;13.25;11.85;;;;;;;5.13;65.79;102456.00;4962140;28;20018;-71
2022/03/22 05:01:37;;;;;;;17.08;12.00;;;;;;;5.13;65.48;102456.00;4958904;28;20094;-71
2022/03/22 05:04:03;;;;;;;20.63;11.82;;;;;;;5.05;65.58;102456.31;4992188;28;20034;-71
2022/03/22 05:06:30;;;;;;;14.75;11.98;;;;;;;5.05;66.06;102458.94;4962083;28;20838;-71
2022/03/22 05:08:55;;;;;;;15.25;12.38;;;;;;;5.02;66.12;102458.16;4982230;28;20033;-70
2022/03/22 05:11:21;;;;;;;15.73;12.73;;;;;;;5.02;66.21;102464.28;4966490;28;20401;-70
2022/03/22 05:13:46;;;;;;;14.05;11.82;;;;;;;4.95;66.08;102468.03;4956397;28;20108;-71
2022/03/22 05:16:12;;;;;;;16.38;12.25;;;;;;;4.96;65.80;102469.75;4970043;28;20889;-69
2022/03/22 05:18:37;;;;;;;13.98;12.43;;;;;;;4.99;65.81;102480.13;4984610;28;20238;-70
2022/03/22 05:21:06;;;;;;;14.55;12.52;;;;;;;4.88;65.81;102480.56;4995551;28;20002;-71
2022/03/22 05:23:32;;;;;;;13.50;12.18;;;;;;;4.88;66.29;102474.44;4983463;28;20494;-71
2022/03/22 05:25:58;;;;;;;15.43;12.48;;;;;;;4.87;65.68;102480.59;4977177;28;20030;-71
2022/03/22 05:28:23;;;;;;;14.73;12.93;;;;;;;4.87;66.14;102476.22;5001558;28;20026;-71
2022/03/22 05:30:49;;;;;;;16.85;12.80;;;;;;;4.79;66.36;102489.63;4985139;28;20028;-71
2022/03/22 05:33:14;;;;;;;16.48;12.68;;;;;;;4.80;65.54;102488.69;4985235;28;20444;-73
2022/03/22 05:35:39;;;;;;;14.10;12.50;;;;;;;4.82;65.56;102491.25;4985630;28;20037;-72
2022/03/22 05:38:05;;;;;;;15.48;12.82;;;;;;;4.81;65.69;102493.03;4983058;28;20006;-72
2022/03/22 05:40:30;;;;;;;14.07;12.55;;;;;;;4.81;65.29;102493.03;4999779;28;20061;-72
2022/03/22 05:42:56;;;;;;;15.75;12.93;;;;;;;4.94;65.05;102498.66;4990378;28;20002;-71
2022/03/22 05:45:21;;;;;;;13.40;12.00;;;;;;;5.04;64.17;102498.34;4975030;28;20006;-73
2022/03/22 05:47:46;;;;;;;13.52;12.13;;;;;;;5.09;64.21;102497.25;4989473;28;20074;-72
2022/03/22 05:50:12;;;;;;;14.90;12.60;;;;;;;5.05;63.90;102495.66;4966227;28;20496;-71
2022/03/22 05:52:44;;;;;;;17.17;13.00;;;;;;;4.94;64.35;102508.31;4936084;28;20026;-71
2022/03/22 05:55:10;;;;;;;14.25;12.45;;;;;;;4.90;64.38;102502.31;4937843;28;20376;-71
2022/03/22 05:57:35;;;;;;;16.40;12.80;;;;;;;4.94;64.15;102505.69;4937999;28;20039;-71
2022/03/22 06:00:00;;;;;;;14.90;12.35;;;;;;;4.94;63.94;102497.81;4955389;28;20003;-72
2022/03/22 06:02:26;;;;;;;14.18;12.48;;;;;;;5.04;63.57;102499.19;4972647;28;20591;-71
2022/03/22 06:04:51;;;;;;;14.75;12.73;;;;;;;4.99;63.98;102501.13;4971600;28;20072;-71
2022/03/22 06:07:20;;;;;;;18.17;12.35;;;;;;;5.03;64.03;102505.34;4973303;28;20030;-70
2022/03/22 06:09:46;;;;;;;17.02;12.57;;;;;;;5.06;63.82;102504.38;4970829;28;20121;-72
2022/03/22 06:12:13;;;;;;;15.98;12.45;;;;;;;5.07;63.74;102514.81;4968414;28;20040;-73
2022/03/22 06:14:38;;;;;;;15.10;12.68;;;;;;;5.14;63.82;102510.19;4948266;28;20238;-72
2022/03/22 06:17:04;;;;;;;14.23;12.75;;;;;;;5.33;63.33;102510.38;4962705;28;20468;-71
2022/03/22 06:19:29;;;;;;;14.55;12.38;;;;;;;5.55;63.11;102509.53;4958307;28;20195;-72
2022/03/22 06:21:55;;;;;;;14.63;12.38;;;;;;;5.56;62.86;102511.25;4971904;28;20554;-72
2022/03/22 06:24:20;;;;;;;13.52;11.45;;;;;;;5.67;62.54;102516.91;4968329;28;20030;-72
2022/03/22 06:26:45;;;;;;;17.25;12.20;;;;;;;5.80;61.67;102518.13;4966032;28;20018;-72
2022/03/22 06:29:11;;;;;;;13.60;11.45;;;;;;;5.99;61.45;102514.78;4955593;28;20037;-73
2022/03/22 06:31:37;;;;;;;16.63;11.93;;;;;;;6.01;61.20;102518.22;4995080;28;20021;-72
2022/03/22 06:34:02;;;;;;;13.55;11.70;;;;;;;5.99;60.82;102522.66;4962257;28;20036;-70
2022/03/22 06:36:28;;;;;;;14.02;11.93;;;;;;;6.04;61.17;102520.72;4990570;28;20343;-72
2022/03/22 06:38:53;;;;;;;13.57;11.50;;;;;;;6.22;61.42;102526.09;4961557;28;20480;-71
2022/03/22 06:41:19;;;;;;;13.88;11.45;;;;;;;6.31;60.75;102525.72;4960616;28;20005;-74
2022/03/22 06:43:44;;;;;;;14.05;11.90;;;;;;;6.37;60.72;102520.19;4994003;28;20826;-72
2022/03/22 06:46:10;;;;;;;13.30;11.68;;;;;;;6.48;60.37;102528.47;4958203;28;20042;-72
2022/03/22 06:48:35;;;;;;;13.45;11.63;;;;;;;6.47;61.61;102521.53;4977935;28;20025;-73
2022/03/22 06:51:01;;;;;;;14.50;11.38;;;;;;;6.63;60.82;102528.75;4955721;28;20007;-70
2022/03/22 06:53:26;;;;;;;14.63;12.00;;;;;;;6.75;60.21;102530.81;4951893;28;20023;-72
2022/03/22 06:55:52;;;;;;;12.98;11.40;;;;;;;7.04;59.27;102523.44;4964683;28;21117;-71
2022/03/22 06:58:21;;;;;;;14.27;11.60;;;;;;;7.05;59.44;102522.50;4967982;28;20061;-72
2022/03/22 07:00:47;;;;;;;14.75;11.35;;;;;;;7.14;59.42;102523.84;4944072;28;20037;-72
2022/03/22 07:03:12;;;;;;;13.43;11.35;;;;;;;7.22;59.19;102530.47;4977853;28;20064;-71
2022/03/22 07:05:38;;;;;;;15.23;11.00;;;;;;;7.43;59.00;102524.28;4953248;28;20022;-71
2022/03/22 07:08:03;;;;;;;11.68;10.57;;;;;;;7.56;58.01;102533.31;4952054;28;20026;-72
2022/03/22 07:10:31;;;;;;;11.50;10.15;;;;;;;7.73;57.02;102530.72;4962485;28;20165;-70
2022/03/22 07:13:01;;;;;;;11.95;10.63;;;;;;;7.88;54.42;102534.41;4945638;28;19998;-71
2022/03/22 07:15:34;;;;;;;12.25;10.88;;;;;;;8.08;53.77;102529.94;4959712;28;21778;-72
2022/03/22 07:18:03;;;;;;;12.57;10.18;;;;;;;8.22;52.80;102529.22;4973626;28;20087;-71
2022/03/22 07:20:29;;;;;;;13.65;10.45;;;;;;;8.37;49.25;102528.44;4988593;28;20029;-71
2022/03/22 07:22:54;;;;;;;11.60;10.10;;;;;;;8.61;47.14;102535.22;4975937;28;20281;-72
2022/03/22 07:25:19;;;;;;;15.48;10.40;;;;;;;8.78;46.50;102527.25;4959743;28;20009;-72
2022/03/22 07:27:45;;;;;;;14.52;11.15;;;;;;;8.89;46.12;102530.19;4961312;28;20029;-73
2022/03/22 07:30:11;;;;;;;11.18;10.07;;;;;;;9.08;44.71;102542.38;4957056;28;20575;-72
2022/03/22 07:32:37;;;;;;;11.70;10.00;;;;;;;9.20;45.38;102539.09;4963023;28;20022;-72
2022/03/22 07:35:03;;;;;;;11.13;9.88;;;;;;;9.37;44.33;102543.44;4949452;28;20019;-73
2022/03/22 07:37:31;;;;;;;12.35;10.40;;;;;;;9.45;44.26;102541.25;4927469;28;20273;-71
2022/03/22 07:39:57;;;;;;;11.40;10.20;;;;;;;9.51;43.50;102534.75;4950053;28;20761;-71
2022/03/22 07:42:29;;;;;;;10.93;9.90;;;;;;;9.65;43.18;102538.44;4964950;28;20018;-72
2022/03/22 07:44:59;;;;;;;12.38;10.70;;;;;;;9.77;43.49;102537.72;4984310;28;20076;-71
2022/03/22 07:47:24;;;;;;;11.73;10.27;;;;;;;9.87;42.93;102538.94;4960562;28;20305;-73
2022/03/22 07:55:18;;;;;;;12.23;10.27;;;;;;;10.34;42.27;102538.91;4962615;28;20268;-72
2022/03/22 07:57:44;;;;;;;14.95;10.77;;;;;;;10.44;42.28;102534.78;4972711;28;20250;-71
2022/03/22 08:00:09;;;;;;;12.93;10.55;;;;;;;10.52;41.78;102540.47;4978420;28;20033;-71
2022/03/22 08:02:36;;;;;;;11.65;10.13;;;;;;;10.62;41.47;102546.91;4965618;28;20002;-70
2022/03/22 08:05:06;;;;;;;11.95;9.90;;;;;;;10.82;41.09;102544.84;4997195;28;20190;-71
2022/03/22 08:07:32;;;;;;;12.40;10.40;;;;;;;10.90;40.74;102550.53;4944588;28;20140;-70
2022/03/22 08:09:57;;;;;;;12.57;10.27;;;;;;;10.98;39.87;102535.03;4978776;28;20030;-72
2022/03/22 08:12:22;;;;;;;11.00;9.73;;;;;;;11.16;40.63;102532.16;4951569;28;20026;-70
2022/03/22 08:14:48;;;;;;;11.48;10.13;;;;;;;11.26;41.11;102538.56;4977673;28;20036;-71
2022/03/22 08:17:13;;;;;;;13.30;9.50;;;;;;;11.39;40.46;102537.78;4968466;28;20015;-72
2022/03/22 08:19:39;;;;;;;11.18;10.10;;;;;;;11.52;38.53;102534.25;4960016;28;20198;-70
2022/03/22 08:22:05;;;;;;;12.30;9.90;;;;;;;11.63;39.94;102533.56;4945273;28;20924;-72
2022/03/22 08:24:30;;;;;;;10.13;9.18;;;;;;;11.84;38.09;102544.59;4963114;28;20044;-70
2022/03/22 08:26:56;;;;;;;11.82;10.25;;;;;;;11.94;38.22;102536.88;4991808;28;20037;-72
2022/03/22 08:29:22;;;;;;;12.32;10.57;;;;;;;12.07;36.64;102541.38;4951975;28;20940;-72
2022/03/22 08:31:47;;;;;;;11.10;9.70;;;;;;;12.29;38.13;102538.13;4984568;28;20026;-72
2022/03/22 08:34:12;;;;;;;11.57;9.90;;;;;;;12.45;35.90;102537.94;4975948;28;20323;-72
2022/03/22 08:36:38;;;;;;;13.98;9.38;;;;;;;12.54;36.82;102530.19;4956193;28;20019;-71
2022/03/22 08:39:03;;;;;;;10.90;9.27;;;;;;;12.66;35.88;102536.47;4968744;28;20026;-72
2022/03/22 08:41:29;;;;;;;17.52;9.57;;;;;;;12.84;36.70;102538.81;4970898;28;20967;-70
2022/03/22 08:43:54;;;;;;;26.05;9.82;;;;;;;13.07;35.93;102531.84;4942213;28;20076;-72
2022/03/22 08:46:24;;;;;;;11.50;9.25;;;;;;;13.15;32.58;102531.31;4969393;28;20029;-72
2022/03/22 08:48:51;;;;;;;11.25;9.57;;;;;;;13.35;32.05;102528.13;4956002;28;20103;-71
2022/03/22 08:51:18;;;;;;;12.00;8.93;;;;;;;13.61;34.17;102532.47;4949813;28;20679;-71
2022/03/22 08:53:44;;;;;;;10.10;9.10;;;;;;;13.83;31.90;102521.09;4998066;28;20009;-72
2022/03/22 08:56:11;;;;;;;11.75;9.55;;;;;;;14.03;30.21;102523.13;5011287;28;20113;-73
2022/03/22 08:58:37;;;;;;;12.90;9.55;;;;;;;14.13;29.44;102530.41;4995640;28;20107;-71
2022/03/22 09:01:02;;;;;;;10.27;9.27;;;;;;;14.29;30.32;102522.94;4955595;28;20203;-71
2022/03/22 09:03:31;;;;;;;12.40;9.57;;;;;;;14.47;28.35;102526.03;4956300;28;20030;-72
2022/03/22 09:06:08;;;;;;;10.18;9.18;;;;;;;14.53;28.97;102530.03;4973385;28;20029;-72
2022/03/22 09:08:38;;;;;;;10.50;9.30;;;;;;;14.96;28.83;102516.03;4959452;28;20065;-72
2022/03/22 09:11:04;;;;;;;11.13;8.95;;;;;;;15.31;30.29;102517.66;4962372;28;20018;-71
2022/03/22 09:13:29;;;;;;;12.25;9.30;;;;;;;15.71;30.81;102525.09;4943529;28;20148;-71
2022/03/22 09:15:55;;;;;;;11.82;9.05;;;;;;;16.16;29.16;102521.41;4944266;28;20651;-73
2022/03/22 09:18:24;;;;;;;9.88;8.98;;;;;;;16.30;28.70;102518.41;4979572;28;20018;-71
2022/03/22 09:20:50;;;;;;;10.40;9.20;;;;;;;16.46;28.48;102523.25;4991969;28;20087;-71
2022/03/22 09:23:15;;;;;;;9.70;8.70;;;;;;;16.64;26.56;102517.31;4968853;28;20744;-73
2022/03/22 09:25:41;;;;;;;10.20;9.07;;;;;;;16.48;26.17;102510.63;4984868;28;20632;-72
2022/03/22 09:28:07;;;;;;;10.70;8.48;;;;;;;16.96;26.76;102508.31;4948992;28;20022;-73
2022/03/22 09:30:34;;;;;;;9.27;8.43;;;;;;;17.13;25.29;102504.16;4953166;28;20484;-73
2022/03/22 09:32:59;;;;;;;10.30;9.35;;;;;;;17.48;24.48;102506.31;4959072;28;20310;-71
2022/03/22 09:35:25;;;;;;;10.13;9.10;;;;;;;17.94;24.42;102501.31;4963154;28;20383;-73
2022/03/22 09:37:50;;;;;;;9.48;8.48;;;;;;;17.92;23.69;102505.09;4977319;28;21058;-74
2022/03/22 09:40:18;;;;;;;9.82;8.90;;;;;;;18.08;23.31;102505.38;4955802;28;20030;-73
2022/03/22 09:42:45;;;;;;;9.73;8.73;;;;;;;18.43;23.79;102498.53;4982489;28;20010;-73
2022/03/22 09:45:10;;;;;;;9.85;8.85;;;;;;;19.23;23.85;102495.34;4965457;28;20025;-73
2022/03/22 09:47:36;;;;;;;10.55;8.70;;;;;;;19.62;24.51;102496.94;4947755;28;20038;-71
2022/03/22 09:50:03;;;;;;;9.90;8.90;;;;;;;19.72;23.35;102493.16;4963556;28;20010;-73
2022/03/22 09:52:28;;;;;;;9.18;8.35;;;;;;;20.05;23.16;102492.59;4958442;28;20017;-73
2022/03/22 09:54:53;;;;;;;10.07;8.45;;;;;;;20.03;22.25;102489.25;4961951;28;20030;-72
2022/03/22 09:57:19;;;;;;;13.90;8.80;;;;;;;20.59;21.61;102489.75;4948496;28;20484;-73
2022/03/22 09:59:44;;;;;;;8.48;7.65;;;;;;;20.98;21.08;102488.41;4936944;28;20332;-72
2022/03/22 10:02:10;;;;;;;9.30;8.40;;;;;;;20.99;21.41;102476.66;4989572;28;20022;-73
2022/03/22 10:04:40;;;;;;;9.18;8.05;;;;;;;21.25;21.55;102485.47;4959060;28;20270;-73
2022/03/22 10:07:06;;;;;;;9.43;8.15;;;;;;;21.14;20.28;102484.94;4970476;28;20188;-73
2022/03/22 10:09:36;;;;;;;8.88;7.97;;;;;;;21.87;21.27;102481.53;4948577;28;20719;-71
2022/03/22 10:12:03;;;;;;;9.88;8.40;;;;;;;21.85;20.53;102483.53;4948052;28;20011;-73
2022/03/22 10:14:41;;;;;;;10.15;9.10;;;;;;;21.78;19.94;102479.81;4945250;28;20011;-72
2022/03/22 10:17:13;;;;;;;9.45;8.60;;;;;;;21.68;20.72;102474.59;4969696;28;20129;-73
2022/03/22 10:19:49;;;;;;;10.85;8.63;;;;;;;22.27;21.84;102477.06;4945516;28;20022;-73
2022/03/22 10:22:14;;;;;;;9.65;8.75;;;;;;;22.46;20.02;102473.19;4944478;28;20070;-72
2022/03/22 10:24:47;;;;;;;9.65;8.65;;;;;;;22.30;19.00;102471.31;4975623;28;20010;-73
2022/03/22 10:27:24;;;;;;;10.25;9.20;;;;;;;22.85;20.40;102473.38;4956993;28;20769;-72
2022/03/22 10:29:50;;;;;;;11.48;9.00;;;;;;;23.25;17.57;102464.22;4947364;28;20030;-72
2022/03/22 10:32:16;;;;;;;9.30;8.50;;;;;;;23.53;18.97;102476.34;4960991;28;20355;-73
2022/03/22 10:34:42;;;;;;;9.50;8.50;;;;;;;23.40;19.88;102466.13;4946818;28;20003;-73
2022/03/22 10:37:07;;;;;;;8.52;7.72;;;;;;;23.55;18.61;102467.03;4966119;28;20010;-72
2022/03/22 10:39:34;;;;;;;8.93;8.13;;;;;;;23.94;19.43;102468.72;4979467;28;20019;-73
2022/03/22 10:42:05;;;;;;;8.93;7.85;;;;;;;24.07;19.21;102465.41;4964259;28;20213;-73
2022/03/22 10:44:34;;;;;;;12.77;8.52;;;;;;;23.77;18.42;102469.88;4948528;28;20027;-73
2022/03/22 10:47:02;;;;;;;11.27;8.13;;;;;;;24.32;19.11;102463.28;4935518;28;20027;-73
2022/03/22 10:49:27;;;;;;;9.48;7.78;;;;;;;23.95;18.24;102461.47;4945292;28;20011;-73
2022/03/22 10:51:53;;;;;;;11.75;7.70;;;;;;;23.93;18.65;102463.50;4947700;28;20009;-73
2022/03/22 10:54:19;;;;;;;8.50;7.78;;;;;;;24.28;18.64;102453.00;4949501;28;20436;-72
2022/03/22 10:56:50;;;;;;;9.18;7.82;;;;;;;24.49;17.66;102458.53;4926422;28;20038;-73
2022/03/22 10:59:17;;;;;;;10.38;7.32;;;;;;;24.46;18.61;102456.16;4911758;28;20376;-73
2022/03/22 11:01:43;;;;;;;8.23;7.43;;;;;;;24.52;18.22;102459.97;4944265;28;20115;-73
2022/03/22 11:04:08;;;;;;;10.00;8.25;;;;;;;24.33;17.75;102446.00;4985050;28;20045;-72
2022/03/22 11:06:33;;;;;;;8.30;7.10;;;;;;;24.79;18.42;102455.81;4965313;28;20078;-72
2022/03/22 11:08:59;;;;;;;10.82;7.68;;;;;;;25.46;17.61;102451.09;4969628;28;20037;-73
2022/03/22 11:11:24;;;;;;;8.63;7.00;;;;;;;25.53;17.70;102434.91;4968145;28;20018;-72
2022/03/22 11:13:50;;;;;;;8.43;6.88;;;;;;;26.45;17.13;102437.59;4950538;28;20015;-73
2022/03/22 11:16:15;;;;;;;7.53;6.68;;;;;;;26.83;15.90;102429.84;4947290;28;20804;-72
2022/03/22 11:18:41;;;;;;;7.82;7.00;;;;;;;26.46;16.90;102425.72;4952667;28;20018;-74
2022/03/22 11:21:06;;;;;;;7.80;6.97;;;;;;;26.78;17.37;102428.78;4966570;28;20038;-73
2022/03/22 11:23:32;;;;;;;8.68;7.20;;;;;;;26.91;16.51;102424.22;4984115;28;20119;-73
2022/03/22 11:26:18;;;;;;;8.00;7.30;;;;;;;27.59;15.04;102425.97;4959497;28;20810;-73
2022/03/22 11:28:44;;;;;;;11.27;7.43;;;;;;;27.33;15.23;102418.66;4964437;28;20035;-73
2022/03/22 11:31:09;;;;;;;8.20;7.43;;;;;;;27.46;15.51;102417.00;4958891;28;20136;-73
2022/03/22 11:36:21;;;;;;;8.05;7.13;;;;;;;27.17;15.31;102413.59;4976934;28;20330;-73
2022/03/22 11:38:51;;;;;;;7.55;6.85;;;;;;;28.34;16.89;102413.91;4958776;28;20369;-72
2022/03/22 11:44:19;;;;;;;7.50;6.80;;;;;;;27.89;16.03;102411.09;4994459;28;20017;-71
2022/03/22 11:46:45;;;;;;;8.73;7.10;;;;;;;28.43;16.12;102407.19;4987664;28;20144;-73